sensor_id;sensor_type;location;lat;lon;timestamp;temperature;humidity
20291;DHT22;10304;51.074;13.754;2023-09-12T00:01:05;22.30;99.90
20291;DHT22;10304;51.074;13.754;2023-09-12T00:03:33;22.20;99.90
20291;DHT22;10304;51.074;13.754;2023-09-12T00:06:02;22.20;99.90
20291;DHT22;10304;51.074;13.754;2023-09-12T00:08:29;22.20;99.90
20291;DHT22;10304;51.074;13.754;2023-09-12T00:11:06;22.10;99.90
20291;DHT22;10304;51.074;13.754;2023-09-12T00:13:40;22.10;99.90
20291;DHT22;10304;51.074;13.754;2023-09-12T00:16:08;22.10;99.90
20291;DHT22;10304;51.074;13.754;2023-09-12T00:18:38;22.00;99.90
20291;DHT22;10304;51.074;13.754;2023-09-12T00:21:06;22.00;99.90
20291;DHT22;10304;51.074;13.754;2023-09-12T00:23:32;21.90;99.90
20291;DHT22;10304;51.074;13.754;2023-09-12T00:25:59;21.90;99.90
20291;DHT22;10304;51.074;13.754;2023-09-12T00:28:26;21.90;99.90
20291;DHT22;10304;51.074;13.754;2023-09-12T00:30:53;21.80;99.90
20291;DHT22;10304;51.074;13.754;2023-09-12T00:33:20;21.80;99.90
20291;DHT22;10304;51.074;13.754;2023-09-12T00:35:47;21.80;99.90
20291;DHT22;10304;51.074;13.754;2023-09-12T00:38:13;21.70;1.00
20291;DHT22;10304;51.074;13.754;2023-09-12T00:40:40;21.70;1.00
20291;DHT22;10304;51.074;13.754;2023-09-12T00:43:07;21.70;1.00
20291;DHT22;10304;51.074;13.754;2023-09-12T00:45:34;21.70;1.00
20291;DHT22;10304;51.074;13.754;2023-09-12T00:48:03;21.60;1.00
20291;DHT22;10304;51.074;13.754;2023-09-12T00:50:31;21.60;1.00
20291;DHT22;10304;51.074;13.754;2023-09-12T00:52:59;21.50;1.00
20291;DHT22;10304;51.074;13.754;2023-09-12T00:55:29;21.50;1.00
20291;DHT22;10304;51.074;13.754;2023-09-12T00:57:58;21.40;1.00
20291;DHT22;10304;51.074;13.754;2023-09-12T01:00:25;21.40;1.00
20291;DHT22;10304;51.074;13.754;2023-09-12T01:02:52;21.30;1.00
20291;DHT22;10304;51.074;13.754;2023-09-12T01:05:22;21.30;1.00
20291;DHT22;10304;51.074;13.754;2023-09-12T01:07:49;21.30;1.00
20291;DHT22;10304;51.074;13.754;2023-09-12T01:10:16;21.30;1.00
20291;DHT22;10304;51.074;13.754;2023-09-12T01:12:44;21.30;1.00
20291;DHT22;10304;51.074;13.754;2023-09-12T01:15:11;21.20;2.80
20291;DHT22;10304;51.074;13.754;2023-09-12T01:17:45;21.20;1.00
20291;DHT22;10304;51.074;13.754;2023-09-12T01:20:16;21.20;99.90
20291;DHT22;10304;51.074;13.754;2023-09-12T01:28:18;21.10;1.00
20291;DHT22;10304;51.074;13.754;2023-09-12T01:30:48;21.00;1.00
20291;DHT22;10304;51.074;13.754;2023-09-12T01:33:16;21.00;1.00
20291;DHT22;10304;51.074;13.754;2023-09-12T01:35:43;21.00;1.00
20291;DHT22;10304;51.074;13.754;2023-09-12T01:38:10;21.00;99.90
20291;DHT22;10304;51.074;13.754;2023-09-12T01:40:49;20.90;1.00
20291;DHT22;10304;51.074;13.754;2023-09-12T01:43:18;20.90;1.00
20291;DHT22;10304;51.074;13.754;2023-09-12T01:45:51;20.90;1.00
20291;DHT22;10304;51.074;13.754;2023-09-12T01:48:21;20.90;1.00
20291;DHT22;10304;51.074;13.754;2023-09-12T01:50:49;20.90;1.00
20291;DHT22;10304;51.074;13.754;2023-09-12T01:53:17;20.80;81.30
20291;DHT22;10304;51.074;13.754;2023-09-12T01:55:45;20.80;1.00
20291;DHT22;10304;51.074;13.754;2023-09-12T01:58:13;20.80;1.00
20291;DHT22;10304;51.074;13.754;2023-09-12T02:00:40;20.80;1.00
20291;DHT22;10304;51.074;13.754;2023-09-12T02:03:08;20.80;1.00
20291;DHT22;10304;51.074;13.754;2023-09-12T02:05:35;20.70;1.00
20291;DHT22;10304;51.074;13.754;2023-09-12T02:08:04;20.70;33.20
20291;DHT22;10304;51.074;13.754;2023-09-12T02:10:31;20.70;1.00
20291;DHT22;10304;51.074;13.754;2023-09-12T02:12:58;20.70;1.00
20291;DHT22;10304;51.074;13.754;2023-09-12T02:15:25;20.70;1.00
20291;DHT22;10304;51.074;13.754;2023-09-12T02:17:52;20.60;1.00
20291;DHT22;10304;51.074;13.754;2023-09-12T02:20:19;20.60;1.00
20291;DHT22;10304;51.074;13.754;2023-09-12T02:22:47;20.60;99.90
20291;DHT22;10304;51.074;13.754;2023-09-12T02:25:14;20.60;24.30
20291;DHT22;10304;51.074;13.754;2023-09-12T02:27:40;20.50;99.90
20291;DHT22;10304;51.074;13.754;2023-09-12T02:30:07;20.50;1.00
20291;DHT22;10304;51.074;13.754;2023-09-12T02:32:35;20.50;24.80
20291;DHT22;10304;51.074;13.754;2023-09-12T02:35:01;20.50;99.90
20291;DHT22;10304;51.074;13.754;2023-09-12T02:37:29;20.40;1.00
20291;DHT22;10304;51.074;13.754;2023-09-12T02:39:56;20.50;99.90
20291;DHT22;10304;51.074;13.754;2023-09-12T02:42:22;20.50;99.90
20291;DHT22;10304;51.074;13.754;2023-09-12T02:44:50;20.40;99.90
20291;DHT22;10304;51.074;13.754;2023-09-12T02:47:19;20.40;99.90
20291;DHT22;10304;51.074;13.754;2023-09-12T02:49:46;20.40;99.90
20291;DHT22;10304;51.074;13.754;2023-09-12T02:52:12;20.50;99.90
20291;DHT22;10304;51.074;13.754;2023-09-12T02:54:39;20.50;99.90
20291;DHT22;10304;51.074;13.754;2023-09-12T02:57:06;20.40;1.00
20291;DHT22;10304;51.074;13.754;2023-09-12T02:59:33;20.40;1.00
20291;DHT22;10304;51.074;13.754;2023-09-12T03:02:00;20.40;1.00
20291;DHT22;10304;51.074;13.754;2023-09-12T03:04:27;20.40;1.00
20291;DHT22;10304;51.074;13.754;2023-09-12T03:06:55;20.40;1.00
20291;DHT22;10304;51.074;13.754;2023-09-12T03:09:22;20.40;99.90
20291;DHT22;10304;51.074;13.754;2023-09-12T03:11:50;20.40;99.90
20291;DHT22;10304;51.074;13.754;2023-09-12T03:14:16;20.40;1.00
20291;DHT22;10304;51.074;13.754;2023-09-12T03:16:43;20.30;1.00
20291;DHT22;10304;51.074;13.754;2023-09-12T03:19:10;20.30;1.00
20291;DHT22;10304;51.074;13.754;2023-09-12T03:21:37;20.30;99.90
20291;DHT22;10304;51.074;13.754;2023-09-12T03:24:05;20.30;1.00
20291;DHT22;10304;51.074;13.754;2023-09-12T03:26:34;20.30;1.00
20291;DHT22;10304;51.074;13.754;2023-09-12T03:29:02;20.30;1.00
20291;DHT22;10304;51.074;13.754;2023-09-12T03:31:29;20.30;99.90
20291;DHT22;10304;51.074;13.754;2023-09-12T03:33:56;20.20;99.90
20291;DHT22;10304;51.074;13.754;2023-09-12T03:36:23;20.30;1.00
20291;DHT22;10304;51.074;13.754;2023-09-12T03:38:49;20.20;99.90
20291;DHT22;10304;51.074;13.754;2023-09-12T03:41:16;20.20;99.90
20291;DHT22;10304;51.074;13.754;2023-09-12T03:43:44;20.20;99.90
20291;DHT22;10304;51.074;13.754;2023-09-12T03:46:10;20.20;99.90
20291;DHT22;10304;51.074;13.754;2023-09-12T03:48:37;20.20;99.90
20291;DHT22;10304;51.074;13.754;2023-09-12T03:51:04;20.20;15.90
20291;DHT22;10304;51.074;13.754;2023-09-12T03:53:31;20.20;99.90
20291;DHT22;10304;51.074;13.754;2023-09-12T03:55:58;20.20;99.90
20291;DHT22;10304;51.074;13.754;2023-09-12T03:58:25;20.20;99.90
20291;DHT22;10304;51.074;13.754;2023-09-12T04:00:52;20.20;99.90
20291;DHT22;10304;51.074;13.754;2023-09-12T04:03:19;20.20;99.90
20291;DHT22;10304;51.074;13.754;2023-09-12T04:05:47;20.10;99.90
20291;DHT22;10304;51.074;13.754;2023-09-12T04:08:14;20.10;99.90
20291;DHT22;10304;51.074;13.754;2023-09-12T04:10:42;20.10;1.00
20291;DHT22;10304;51.074;13.754;2023-09-12T04:13:09;20.10;1.00
20291;DHT22;10304;51.074;13.754;2023-09-12T04:15:36;20.10;1.00
20291;DHT22;10304;51.074;13.754;2023-09-12T04:18:03;20.00;1.00
20291;DHT22;10304;51.074;13.754;2023-09-12T04:20:30;20.00;1.00
20291;DHT22;10304;51.074;13.754;2023-09-12T04:25:25;20.00;98.30
20291;DHT22;10304;51.074;13.754;2023-09-12T04:27:53;20.00;1.00
20291;DHT22;10304;51.074;13.754;2023-09-12T04:30:20;20.00;1.00
20291;DHT22;10304;51.074;13.754;2023-09-12T04:32:47;20.00;1.00
20291;DHT22;10304;51.074;13.754;2023-09-12T04:35:13;20.00;99.90
20291;DHT22;10304;51.074;13.754;2023-09-12T04:37:40;20.00;99.90
20291;DHT22;10304;51.074;13.754;2023-09-12T04:40:07;20.00;99.90
20291;DHT22;10304;51.074;13.754;2023-09-12T04:42:35;19.90;99.90
20291;DHT22;10304;51.074;13.754;2023-09-12T04:45:02;19.90;99.90
20291;DHT22;10304;51.074;13.754;2023-09-12T04:47:29;19.90;99.90
20291;DHT22;10304;51.074;13.754;2023-09-12T04:49:56;19.90;99.90
20291;DHT22;10304;51.074;13.754;2023-09-12T04:52:23;19.80;99.90
20291;DHT22;10304;51.074;13.754;2023-09-12T04:54:50;19.90;99.90
20291;DHT22;10304;51.074;13.754;2023-09-12T04:57:16;19.90;99.90
20291;DHT22;10304;51.074;13.754;2023-09-12T04:59:43;19.90;99.90
20291;DHT22;10304;51.074;13.754;2023-09-12T05:02:10;19.90;16.70
20291;DHT22;10304;51.074;13.754;2023-09-12T05:04:39;19.80;60.40
20291;DHT22;10304;51.074;13.754;2023-09-12T05:07:06;19.80;1.00
20291;DHT22;10304;51.074;13.754;2023-09-12T05:09:32;19.80;1.00
20291;DHT22;10304;51.074;13.754;2023-09-12T05:11:59;19.80;1.00
20291;DHT22;10304;51.074;13.754;2023-09-12T05:14:26;19.80;1.00
20291;DHT22;10304;51.074;13.754;2023-09-12T05:16:52;19.80;1.00
20291;DHT22;10304;51.074;13.754;2023-09-12T05:19:19;19.80;99.90
20291;DHT22;10304;51.074;13.754;2023-09-12T05:21:46;19.80;1.00
20291;DHT22;10304;51.074;13.754;2023-09-12T05:24:13;19.90;1.00
20291;DHT22;10304;51.074;13.754;2023-09-12T05:26:40;19.80;1.00
20291;DHT22;10304;51.074;13.754;2023-09-12T05:29:10;19.80;1.00
20291;DHT22;10304;51.074;13.754;2023-09-12T05:31:36;19.80;92.00
20291;DHT22;10304;51.074;13.754;2023-09-12T05:34:03;19.80;99.90
20291;DHT22;10304;51.074;13.754;2023-09-12T05:36:31;19.80;99.90
20291;DHT22;10304;51.074;13.754;2023-09-12T05:38:58;19.90;99.90
20291;DHT22;10304;51.074;13.754;2023-09-12T05:41:26;19.90;1.00
20291;DHT22;10304;51.074;13.754;2023-09-12T05:43:53;19.90;1.00
20291;DHT22;10304;51.074;13.754;2023-09-12T05:46:19;19.90;1.00
20291;DHT22;10304;51.074;13.754;2023-09-12T05:48:46;20.00;1.00
20291;DHT22;10304;51.074;13.754;2023-09-12T05:51:13;20.00;1.00
20291;DHT22;10304;51.074;13.754;2023-09-12T05:53:40;20.00;1.00
20291;DHT22;10304;51.074;13.754;2023-09-12T05:56:07;20.10;1.00
20291;DHT22;10304;51.074;13.754;2023-09-12T05:58:33;20.10;1.00
20291;DHT22;10304;51.074;13.754;2023-09-12T06:01:01;20.20;99.90
20291;DHT22;10304;51.074;13.754;2023-09-12T06:03:29;20.20;1.00
20291;DHT22;10304;51.074;13.754;2023-09-12T06:05:57;20.20;99.90
20291;DHT22;10304;51.074;13.754;2023-09-12T06:08:24;20.20;99.90
20291;DHT22;10304;51.074;13.754;2023-09-12T06:10:51;20.30;99.90
20291;DHT22;10304;51.074;13.754;2023-09-12T06:13:20;20.30;99.90
20291;DHT22;10304;51.074;13.754;2023-09-12T06:15:47;20.40;1.00
20291;DHT22;10304;51.074;13.754;2023-09-12T06:18:14;20.40;99.90
20291;DHT22;10304;51.074;13.754;2023-09-12T06:20:41;20.40;99.90
20291;DHT22;10304;51.074;13.754;2023-09-12T06:23:09;20.50;29.10
20291;DHT22;10304;51.074;13.754;2023-09-12T06:25:37;20.60;1.00
20291;DHT22;10304;51.074;13.754;2023-09-12T06:28:05;20.60;1.00
20291;DHT22;10304;51.074;13.754;2023-09-12T06:30:32;20.70;1.00
20291;DHT22;10304;51.074;13.754;2023-09-12T06:32:58;20.80;1.00
20291;DHT22;10304;51.074;13.754;2023-09-12T06:35:25;20.80;1.00
20291;DHT22;10304;51.074;13.754;2023-09-12T06:37:53;20.90;1.00
20291;DHT22;10304;51.074;13.754;2023-09-12T06:40:22;21.00;99.90
20291;DHT22;10304;51.074;13.754;2023-09-12T06:42:50;21.00;99.90
20291;DHT22;10304;51.074;13.754;2023-09-12T06:45:17;21.10;99.90
20291;DHT22;10304;51.074;13.754;2023-09-12T06:47:44;21.20;98.40
20291;DHT22;10304;51.074;13.754;2023-09-12T06:50:11;21.30;1.00
20291;DHT22;10304;51.074;13.754;2023-09-12T06:52:41;21.30;1.00
20291;DHT22;10304;51.074;13.754;2023-09-12T06:55:08;21.40;1.00
20291;DHT22;10304;51.074;13.754;2023-09-12T06:57:43;21.50;99.90
20291;DHT22;10304;51.074;13.754;2023-09-12T07:00:16;21.60;99.90
20291;DHT22;10304;51.074;13.754;2023-09-12T07:02:44;21.70;99.90
20291;DHT22;10304;51.074;13.754;2023-09-12T07:05:11;21.80;53.40
20291;DHT22;10304;51.074;13.754;2023-09-12T07:08:14;21.80;1.00
20291;DHT22;10304;51.074;13.754;2023-09-12T07:10:45;21.90;1.00
20291;DHT22;10304;51.074;13.754;2023-09-12T07:13:13;22.00;1.00
20291;DHT22;10304;51.074;13.754;2023-09-12T07:15:44;22.10;99.90
20291;DHT22;10304;51.074;13.754;2023-09-12T07:18:17;22.20;99.90
20291;DHT22;10304;51.074;13.754;2023-09-12T07:20:45;22.30;61.50
20291;DHT22;10304;51.074;13.754;2023-09-12T07:55:03;23.90;99.90
20291;DHT22;10304;51.074;13.754;2023-09-12T07:57:30;24.00;99.90
20291;DHT22;10304;51.074;13.754;2023-09-12T07:59:57;24.20;99.90
20291;DHT22;10304;51.074;13.754;2023-09-12T08:02:25;24.30;1.00
20291;DHT22;10304;51.074;13.754;2023-09-12T08:04:52;24.40;1.00
20291;DHT22;10304;51.074;13.754;2023-09-12T08:07:20;24.60;1.00
20291;DHT22;10304;51.074;13.754;2023-09-12T08:09:53;24.70;1.00
20291;DHT22;10304;51.074;13.754;2023-09-12T08:12:29;24.90;1.00
20291;DHT22;10304;51.074;13.754;2023-09-12T08:14:56;25.10;1.00
20291;DHT22;10304;51.074;13.754;2023-09-12T08:17:23;25.30;1.00
20291;DHT22;10304;51.074;13.754;2023-09-12T08:19:52;25.50;1.00
20291;DHT22;10304;51.074;13.754;2023-09-12T08:22:19;25.60;1.00
20291;DHT22;10304;51.074;13.754;2023-09-12T08:24:46;25.80;99.90
20291;DHT22;10304;51.074;13.754;2023-09-12T08:27:13;25.90;99.90
20291;DHT22;10304;51.074;13.754;2023-09-12T08:29:40;26.10;99.90
20291;DHT22;10304;51.074;13.754;2023-09-12T08:32:08;26.40;99.90
20291;DHT22;10304;51.074;13.754;2023-09-12T08:34:35;26.50;99.90
20291;DHT22;10304;51.074;13.754;2023-09-12T08:37:02;26.80;99.90
20291;DHT22;10304;51.074;13.754;2023-09-12T08:39:43;26.90;52.10
20291;DHT22;10304;51.074;13.754;2023-09-12T08:42:15;27.20;15.60
20291;DHT22;10304;51.074;13.754;2023-09-12T08:44:42;27.30;1.00
20291;DHT22;10304;51.074;13.754;2023-09-12T08:47:11;27.60;1.00
20291;DHT22;10304;51.074;13.754;2023-09-12T08:49:38;27.80;1.00
20291;DHT22;10304;51.074;13.754;2023-09-12T08:52:05;28.00;1.00
20291;DHT22;10304;51.074;13.754;2023-09-12T08:54:33;28.10;1.00
20291;DHT22;10304;51.074;13.754;2023-09-12T08:57:05;28.40;1.00
20291;DHT22;10304;51.074;13.754;2023-09-12T08:59:33;28.60;1.00
20291;DHT22;10304;51.074;13.754;2023-09-12T09:02:01;28.80;1.00
20291;DHT22;10304;51.074;13.754;2023-09-12T09:04:33;29.00;1.00
20291;DHT22;10304;51.074;13.754;2023-09-12T09:07:01;29.30;1.00
20291;DHT22;10304;51.074;13.754;2023-09-12T09:09:31;29.50;1.00
20291;DHT22;10304;51.074;13.754;2023-09-12T09:11:59;29.80;1.00
20291;DHT22;10304;51.074;13.754;2023-09-12T09:14:26;30.00;1.00
20291;DHT22;10304;51.074;13.754;2023-09-12T09:16:52;30.30;1.00
20291;DHT22;10304;51.074;13.754;2023-09-12T09:19:20;30.50;1.00
20291;DHT22;10304;51.074;13.754;2023-09-12T09:21:47;30.70;1.00
20291;DHT22;10304;51.074;13.754;2023-09-12T09:24:16;31.00;1.00
20291;DHT22;10304;51.074;13.754;2023-09-12T09:26:47;31.20;1.00
20291;DHT22;10304;51.074;13.754;2023-09-12T09:29:19;31.30;1.00
20291;DHT22;10304;51.074;13.754;2023-09-12T09:31:47;31.60;1.00
20291;DHT22;10304;51.074;13.754;2023-09-12T09:34:16;31.80;1.00
20291;DHT22;10304;51.074;13.754;2023-09-12T09:36:54;32.00;1.00
20291;DHT22;10304;51.074;13.754;2023-09-12T09:39:24;32.20;1.00
20291;DHT22;10304;51.074;13.754;2023-09-12T09:41:53;32.40;1.00
20291;DHT22;10304;51.074;13.754;2023-09-12T09:44:25;32.70;1.00
20291;DHT22;10304;51.074;13.754;2023-09-12T09:47:00;32.90;1.00
20291;DHT22;10304;51.074;13.754;2023-09-12T09:49:33;33.10;1.00
20291;DHT22;10304;51.074;13.754;2023-09-12T09:52:03;33.40;1.00
20291;DHT22;10304;51.074;13.754;2023-09-12T09:54:32;33.70;1.00
20291;DHT22;10304;51.074;13.754;2023-09-12T09:56:59;34.00;1.00
20291;DHT22;10304;51.074;13.754;2023-09-12T09:59:27;34.30;1.00
20291;DHT22;10304;51.074;13.754;2023-09-12T10:01:59;34.60;1.00
20291;DHT22;10304;51.074;13.754;2023-09-12T10:04:28;34.90;1.00
20291;DHT22;10304;51.074;13.754;2023-09-12T10:06:56;35.20;1.00
20291;DHT22;10304;51.074;13.754;2023-09-12T10:09:26;35.50;1.00
20291;DHT22;10304;51.074;13.754;2023-09-12T10:11:55;35.80;1.00
20291;DHT22;10304;51.074;13.754;2023-09-12T10:14:22;36.00;1.00
20291;DHT22;10304;51.074;13.754;2023-09-12T10:16:50;36.20;1.00
20291;DHT22;10304;51.074;13.754;2023-09-12T10:19:24;36.40;1.00
20291;DHT22;10304;51.074;13.754;2023-09-12T10:22:17;36.60;1.00
20291;DHT22;10304;51.074;13.754;2023-09-12T10:24:49;36.90;1.00
20291;DHT22;10304;51.074;13.754;2023-09-12T10:27:18;37.20;1.00
20291;DHT22;10304;51.074;13.754;2023-09-12T10:29:46;37.50;1.00
20291;DHT22;10304;51.074;13.754;2023-09-12T10:32:15;37.70;1.00
20291;DHT22;10304;51.074;13.754;2023-09-12T10:34:44;37.80;1.00
20291;DHT22;10304;51.074;13.754;2023-09-12T10:37:15;37.90;1.00
20291;DHT22;10304;51.074;13.754;2023-09-12T10:39:46;38.10;1.00
20291;DHT22;10304;51.074;13.754;2023-09-12T10:42:16;38.30;1.00
20291;DHT22;10304;51.074;13.754;2023-09-12T10:44:45;38.40;1.00
20291;DHT22;10304;51.074;13.754;2023-09-12T10:47:13;38.70;1.00
20291;DHT22;10304;51.074;13.754;2023-09-12T10:49:43;38.80;1.00
20291;DHT22;10304;51.074;13.754;2023-09-12T10:52:24;38.90;1.00
20291;DHT22;10304;51.074;13.754;2023-09-12T10:54:51;39.10;1.00
20291;DHT22;10304;51.074;13.754;2023-09-12T10:57:19;39.20;1.00
20291;DHT22;10304;51.074;13.754;2023-09-12T11:02:38;39.60;1.00
20291;DHT22;10304;51.074;13.754;2023-09-12T11:05:07;39.70;1.00
20291;DHT22;10304;51.074;13.754;2023-09-12T11:12:43;39.80;1.00
20291;DHT22;10304;51.074;13.754;2023-09-12T11:15:10;39.90;1.00
20291;DHT22;10304;51.074;13.754;2023-09-12T11:17:38;39.90;1.00
20291;DHT22;10304;51.074;13.754;2023-09-12T11:20:06;39.90;1.00
20291;DHT22;10304;51.074;13.754;2023-09-12T11:22:45;39.90;1.00
20291;DHT22;10304;51.074;13.754;2023-09-12T11:25:23;40.00;1.00
20291;DHT22;10304;51.074;13.754;2023-09-12T11:30:18;40.00;1.00
20291;DHT22;10304;51.074;13.754;2023-09-12T11:32:53;40.10;1.00
20291;DHT22;10304;51.074;13.754;2023-09-12T11:35:26;40.10;1.00
20291;DHT22;10304;51.074;13.754;2023-09-12T11:37:57;40.20;1.00
20291;DHT22;10304;51.074;13.754;2023-09-12T11:40:42;40.30;1.00
20291;DHT22;10304;51.074;13.754;2023-09-12T11:43:23;40.40;1.00
20291;DHT22;10304;51.074;13.754;2023-09-12T11:45:51;40.40;1.00
20291;DHT22;10304;51.074;13.754;2023-09-12T11:48:19;40.40;1.00
20291;DHT22;10304;51.074;13.754;2023-09-12T11:50:53;40.40;1.00
20291;DHT22;10304;51.074;13.754;2023-09-12T11:53:22;40.40;1.00
20291;DHT22;10304;51.074;13.754;2023-09-12T11:55:54;40.60;1.00
20291;DHT22;10304;51.074;13.754;2023-09-12T11:58:22;40.80;1.00
20291;DHT22;10304;51.074;13.754;2023-09-12T12:00:50;41.00;1.00
20291;DHT22;10304;51.074;13.754;2023-09-12T12:03:20;41.20;1.00
20291;DHT22;10304;51.074;13.754;2023-09-12T12:05:47;41.40;1.00
20291;DHT22;10304;51.074;13.754;2023-09-12T12:08:17;41.40;1.00
20291;DHT22;10304;51.074;13.754;2023-09-12T12:10:51;41.40;1.00
20291;DHT22;10304;51.074;13.754;2023-09-12T12:13:19;41.50;1.00
20291;DHT22;10304;51.074;13.754;2023-09-12T12:15:48;41.60;1.00
20291;DHT22;10304;51.074;13.754;2023-09-12T12:18:15;41.80;1.00
20291;DHT22;10304;51.074;13.754;2023-09-12T12:20:42;42.00;99.90
20291;DHT22;10304;51.074;13.754;2023-09-12T12:23:09;42.20;99.90
20291;DHT22;10304;51.074;13.754;2023-09-12T12:25:36;42.30;99.90
20291;DHT22;10304;51.074;13.754;2023-09-12T12:28:04;42.50;99.90
20291;DHT22;10304;51.074;13.754;2023-09-12T12:30:33;42.60;99.90
20291;DHT22;10304;51.074;13.754;2023-09-12T12:33:06;42.70;99.90
20291;DHT22;10304;51.074;13.754;2023-09-12T12:36:03;42.80;99.90
20291;DHT22;10304;51.074;13.754;2023-09-12T12:38:34;42.90;99.90
20291;DHT22;10304;51.074;13.754;2023-09-12T12:41:26;43.00;99.90
20291;DHT22;10304;51.074;13.754;2023-09-12T12:44:05;43.00;99.90
20291;DHT22;10304;51.074;13.754;2023-09-12T12:46:33;43.00;99.90
20291;DHT22;10304;51.074;13.754;2023-09-12T12:49:00;43.10;99.90
20291;DHT22;10304;51.074;13.754;2023-09-12T12:51:27;43.10;99.90
20291;DHT22;10304;51.074;13.754;2023-09-12T12:54:05;43.20;99.90
20291;DHT22;10304;51.074;13.754;2023-09-12T12:56:37;43.30;99.90
20291;DHT22;10304;51.074;13.754;2023-09-12T12:59:06;43.50;99.90
20291;DHT22;10304;51.074;13.754;2023-09-12T13:01:36;43.60;99.90
20291;DHT22;10304;51.074;13.754;2023-09-12T13:04:05;43.80;99.90
20291;DHT22;10304;51.074;13.754;2023-09-12T13:06:33;43.90;99.90
20291;DHT22;10304;51.074;13.754;2023-09-12T13:09:04;43.90;99.90
20291;DHT22;10304;51.074;13.754;2023-09-12T13:11:32;43.90;99.90
20291;DHT22;10304;51.074;13.754;2023-09-12T13:14:02;43.80;99.90
20291;DHT22;10304;51.074;13.754;2023-09-12T13:16:35;43.90;99.90
20291;DHT22;10304;51.074;13.754;2023-09-12T13:19:03;44.10;99.90
20291;DHT22;10304;51.074;13.754;2023-09-12T13:21:30;44.20;99.90
20291;DHT22;10304;51.074;13.754;2023-09-12T13:23:59;44.20;99.90
20291;DHT22;10304;51.074;13.754;2023-09-12T13:26:28;44.10;99.90
20291;DHT22;10304;51.074;13.754;2023-09-12T13:28:56;44.10;99.90
20291;DHT22;10304;51.074;13.754;2023-09-12T13:31:24;44.10;99.90
20291;DHT22;10304;51.074;13.754;2023-09-12T13:33:51;44.10;99.90
20291;DHT22;10304;51.074;13.754;2023-09-12T13:36:17;44.10;99.90
20291;DHT22;10304;51.074;13.754;2023-09-12T13:38:44;44.20;99.90
20291;DHT22;10304;51.074;13.754;2023-09-12T13:41:14;44.10;99.90
20291;DHT22;10304;51.074;13.754;2023-09-12T13:43:41;44.10;99.90
20291;DHT22;10304;51.074;13.754;2023-09-12T13:46:10;44.00;99.90
20291;DHT22;10304;51.074;13.754;2023-09-12T13:48:37;43.90;99.90
20291;DHT22;10304;51.074;13.754;2023-09-12T13:51:07;43.80;99.90
20291;DHT22;10304;51.074;13.754;2023-09-12T13:53:34;43.70;99.90
20291;DHT22;10304;51.074;13.754;2023-09-12T13:56:01;43.60;99.90
20291;DHT22;10304;51.074;13.754;2023-09-12T13:58:38;43.70;99.90
20291;DHT22;10304;51.074;13.754;2023-09-12T14:01:12;43.70;99.90
20291;DHT22;10304;51.074;13.754;2023-09-12T14:03:53;43.70;99.90
20291;DHT22;10304;51.074;13.754;2023-09-12T14:06:21;43.80;99.90
20291;DHT22;10304;51.074;13.754;2023-09-12T14:08:48;43.80;99.90
20291;DHT22;10304;51.074;13.754;2023-09-12T14:11:16;43.80;99.90
20291;DHT22;10304;51.074;13.754;2023-09-12T14:13:56;43.70;99.90
20291;DHT22;10304;51.074;13.754;2023-09-12T14:16:40;43.60;99.90
20291;DHT22;10304;51.074;13.754;2023-09-12T14:19:08;43.60;99.90
20291;DHT22;10304;51.074;13.754;2023-09-12T14:21:37;43.50;99.90
20291;DHT22;10304;51.074;13.754;2023-09-12T14:24:05;43.60;99.90
20291;DHT22;10304;51.074;13.754;2023-09-12T14:26:32;43.80;99.90
20291;DHT22;10304;51.074;13.754;2023-09-12T14:28:59;43.80;99.90
20291;DHT22;10304;51.074;13.754;2023-09-12T14:31:28;44.00;99.90
20291;DHT22;10304;51.074;13.754;2023-09-12T14:33:56;44.10;99.90
20291;DHT22;10304;51.074;13.754;2023-09-12T14:36:25;44.10;99.90
20291;DHT22;10304;51.074;13.754;2023-09-12T14:38:52;44.20;99.90
20291;DHT22;10304;51.074;13.754;2023-09-12T14:41:19;44.20;99.90
20291;DHT22;10304;51.074;13.754;2023-09-12T14:43:46;44.10;99.90
20291;DHT22;10304;51.074;13.754;2023-09-12T14:46:13;44.00;99.90
20291;DHT22;10304;51.074;13.754;2023-09-12T14:48:40;43.90;99.90
20291;DHT22;10304;51.074;13.754;2023-09-12T14:51:21;43.70;99.90
20291;DHT22;10304;51.074;13.754;2023-09-12T14:53:59;43.60;99.90
20291;DHT22;10304;51.074;13.754;2023-09-12T14:56:25;43.30;99.90
20291;DHT22;10304;51.074;13.754;2023-09-12T14:58:52;43.10;99.90
20291;DHT22;10304;51.074;13.754;2023-09-12T15:01:19;42.90;99.90
20291;DHT22;10304;51.074;13.754;2023-09-12T15:03:46;42.60;99.90
20291;DHT22;10304;51.074;13.754;2023-09-12T15:06:14;42.40;99.90
20291;DHT22;10304;51.074;13.754;2023-09-12T15:08:41;42.10;99.90
20291;DHT22;10304;51.074;13.754;2023-09-12T15:11:08;41.90;99.90
20291;DHT22;10304;51.074;13.754;2023-09-12T15:13:35;41.70;99.90
20291;DHT22;10304;51.074;13.754;2023-09-12T15:16:03;41.50;99.90
20291;DHT22;10304;51.074;13.754;2023-09-12T15:18:31;41.30;99.90
20291;DHT22;10304;51.074;13.754;2023-09-12T15:20:58;41.10;99.90
20291;DHT22;10304;51.074;13.754;2023-09-12T15:23:25;40.90;99.90
20291;DHT22;10304;51.074;13.754;2023-09-12T15:25:53;40.70;99.90
20291;DHT22;10304;51.074;13.754;2023-09-12T15:28:20;40.50;99.90
20291;DHT22;10304;51.074;13.754;2023-09-12T15:30:47;40.30;99.90
20291;DHT22;10304;51.074;13.754;2023-09-12T15:33:14;40.00;99.90
20291;DHT22;10304;51.074;13.754;2023-09-12T15:35:41;39.80;99.90
20291;DHT22;10304;51.074;13.754;2023-09-12T15:38:07;39.50;99.90
20291;DHT22;10304;51.074;13.754;2023-09-12T15:40:35;39.30;99.90
20291;DHT22;10304;51.074;13.754;2023-09-12T15:43:02;39.10;99.90
20291;DHT22;10304;51.074;13.754;2023-09-12T15:45:48;38.90;99.90
20291;DHT22;10304;51.074;13.754;2023-09-12T15:48:17;38.70;99.90
20291;DHT22;10304;51.074;13.754;2023-09-12T15:50:44;38.60;99.90
20291;DHT22;10304;51.074;13.754;2023-09-12T15:53:11;38.40;99.90
20291;DHT22;10304;51.074;13.754;2023-09-12T15:55:38;38.40;99.90
20291;DHT22;10304;51.074;13.754;2023-09-12T15:58:05;38.40;99.90
20291;DHT22;10304;51.074;13.754;2023-09-12T16:00:31;38.50;99.90
20291;DHT22;10304;51.074;13.754;2023-09-12T16:02:58;38.40;99.90
20291;DHT22;10304;51.074;13.754;2023-09-12T16:05:25;38.40;99.90
20291;DHT22;10304;51.074;13.754;2023-09-12T16:07:52;38.40;99.90
20291;DHT22;10304;51.074;13.754;2023-09-12T16:10:19;38.30;1.00
20291;DHT22;10304;51.074;13.754;2023-09-12T16:12:46;38.30;1.00
20291;DHT22;10304;51.074;13.754;2023-09-12T16:15:13;38.30;99.90
20291;DHT22;10304;51.074;13.754;2023-09-12T16:17:41;38.30;1.00
20291;DHT22;10304;51.074;13.754;2023-09-12T16:20:11;38.20;1.00
20291;DHT22;10304;51.074;13.754;2023-09-12T16:22:40;38.20;1.00